createdAt,value
2023-11-26T00:01:27.139Z,0.10
2023-11-26T00:04:14.798Z,0.20
2023-11-26T00:07:02.410Z,0.00
2023-11-26T00:09:50.081Z,0.13
2023-11-26T00:12:37.808Z,0.00
2023-11-26T00:15:25.294Z,0.00
2023-11-26T00:18:12.992Z,0.00
2023-11-26T00:21:00.744Z,0.20
2023-11-26T00:23:49.643Z,0.20
2023-11-26T00:26:37.106Z,0.20
2023-11-26T00:29:25.117Z,0.32
2023-11-26T00:32:13.025Z,0.13
2023-11-26T00:35:01.290Z,0.20
2023-11-26T00:37:51.474Z,0.35
2023-11-26T00:40:39.545Z,0.10
2023-11-26T00:43:27.178Z,0.10
2023-11-26T00:46:17.243Z,0.00
2023-11-26T00:49:07.486Z,0.08
2023-11-26T00:51:55.693Z,0.00
2023-11-26T00:54:43.175Z,0.00
2023-11-26T00:57:30.975Z,0.03
2023-11-26T01:00:20.870Z,0.10
2023-11-26T01:03:11.497Z,0.10
2023-11-26T01:05:59.270Z,0.08
2023-11-26T01:08:46.887Z,0.10
2023-11-26T01:11:34.513Z,0.00
2023-11-26T01:14:22.177Z,0.30
2023-11-26T01:17:09.889Z,0.08
2023-11-26T01:19:58.078Z,0.00
2023-11-26T01:22:45.825Z,0.10
2023-11-26T01:25:33.584Z,0.90
2023-11-26T01:28:22.283Z,0.17
2023-11-26T01:31:12.749Z,0.00
2023-11-26T01:34:01.019Z,0.00
2023-11-26T01:36:48.817Z,0.00
2023-11-26T01:39:36.619Z,0.00
2023-11-26T01:42:24.300Z,0.10
2023-11-26T01:45:14.711Z,0.40
2023-11-26T01:48:03.097Z,0.35
2023-11-26T01:50:50.764Z,0.25
2023-11-26T01:53:40.065Z,0.10
2023-11-26T01:56:28.215Z,0.00
2023-11-26T01:59:15.877Z,0.00
2023-11-26T02:02:03.656Z,0.05
2023-11-26T02:04:52.069Z,0.00
2023-11-26T02:07:43.252Z,0.15
2023-11-26T02:10:31.459Z,0.20
2023-11-26T02:13:19.000Z,0.28
2023-11-26T02:16:06.840Z,0.20
2023-11-26T02:18:54.546Z,0.10
2023-11-26T02:21:42.268Z,0.25
2023-11-26T02:24:38.178Z,0.08
2023-11-26T02:27:26.326Z,0.20
2023-11-26T02:30:17.500Z,0.28
2023-11-26T02:33:05.199Z,0.00
2023-11-26T02:35:56.917Z,0.03
2023-11-26T02:38:45.539Z,0.05
2023-11-26T02:41:33.475Z,0.10
2023-11-26T02:44:21.374Z,0.20
2023-11-26T03:03:49.192Z,0.25
2023-11-26T03:06:40.005Z,0.00
2023-11-26T03:09:33.881Z,0.00
2023-11-26T03:12:42.639Z,0.15
2023-11-26T03:15:30.813Z,0.00
2023-11-26T03:18:18.933Z,0.00
2023-11-26T03:21:06.983Z,0.10
2023-11-26T03:23:55.497Z,0.20
2023-11-26T03:26:45.074Z,0.10
2023-11-26T03:29:32.864Z,0.08
2023-11-26T03:32:20.597Z,0.00
2023-11-26T03:35:13.386Z,0.00
2023-11-26T03:38:01.879Z,0.57
2023-11-26T03:40:50.290Z,0.10
2023-11-26T03:43:41.273Z,0.10
2023-11-26T03:46:31.425Z,0.30
2023-11-26T03:49:19.178Z,0.20
2023-11-26T03:52:12.840Z,0.10
2023-11-26T03:55:01.071Z,0.60
2023-11-26T03:57:49.209Z,0.45
2023-11-26T04:00:36.902Z,2.92
2023-11-26T04:03:25.041Z,0.50
2023-11-26T04:06:12.853Z,0.70
2023-11-26T04:09:00.456Z,1.35
2023-11-26T04:11:48.268Z,2.17
2023-11-26T04:14:40.898Z,2.25
2023-11-26T04:17:28.620Z,1.88
2023-11-26T04:20:16.706Z,2.75
2023-11-26T04:23:05.219Z,2.13
2023-11-26T04:25:54.136Z,3.42
2023-11-26T04:28:41.959Z,2.53
2023-11-26T04:31:29.630Z,3.13
2023-11-26T04:34:17.331Z,3.58
2023-11-26T04:37:12.036Z,4.45
2023-11-26T04:39:59.949Z,5.13
2023-11-26T04:42:47.748Z,4.63
2023-11-26T04:45:35.501Z,5.25
2023-11-26T04:48:23.119Z,4.88
2023-11-26T04:51:11.369Z,3.63
2023-11-26T04:53:59.239Z,5.13
2023-11-26T04:56:47.334Z,5.07
2023-11-26T04:59:36.791Z,4.90
2023-11-26T05:02:25.324Z,3.70
2023-11-26T05:05:13.111Z,4.07
2023-11-26T05:08:02.556Z,4.00
2023-11-26T05:10:50.336Z,3.40
2023-11-26T05:13:38.042Z,3.70
2023-11-26T05:16:25.592Z,3.17
2023-11-26T05:19:13.654Z,3.45
2023-11-26T05:22:01.574Z,2.70
2023-11-26T05:24:50.215Z,2.85
2023-11-26T05:27:37.897Z,2.08
2023-11-26T05:30:26.506Z,3.13
2023-11-26T05:33:14.557Z,1.50
2023-11-26T05:36:05.476Z,2.08
2023-11-26T05:38:53.305Z,1.40
2023-11-26T05:41:41.171Z,1.50
2023-11-26T05:44:28.892Z,1.98
2023-11-26T05:47:16.512Z,2.40
2023-11-26T05:50:04.814Z,2.05
2023-11-26T05:52:54.493Z,1.45
2023-11-26T05:55:42.177Z,1.17
2023-11-26T05:58:29.931Z,1.20
2023-11-26T06:01:24.895Z,1.13
2023-11-26T06:04:12.884Z,1.88
2023-11-26T06:07:00.809Z,0.75
2023-11-26T06:09:48.429Z,1.25
2023-11-26T06:12:36.185Z,0.65
2023-11-26T06:15:23.900Z,0.82
2023-11-26T06:18:12.150Z,0.38
2023-11-26T06:21:02.908Z,0.65
2023-11-26T06:23:53.319Z,0.80
2023-11-26T06:26:42.323Z,0.60
2023-11-26T06:29:29.842Z,1.65
2023-11-26T06:32:18.511Z,0.95
2023-11-26T06:35:08.833Z,0.22
2023-11-26T06:37:56.501Z,0.70
2023-11-26T06:40:44.070Z,0.35
2023-11-26T06:43:32.020Z,0.93
2023-11-26T06:46:20.022Z,0.50
2023-11-26T06:49:07.487Z,0.77
2023-11-26T06:51:57.285Z,0.77
2023-11-26T06:54:45.131Z,0.57
2023-11-26T06:57:36.470Z,0.82
2023-11-26T07:00:24.268Z,1.13
2023-11-26T07:03:12.913Z,0.55
2023-11-26T07:06:01.460Z,1.50
2023-11-26T07:08:49.151Z,1.25
2023-11-26T07:11:37.110Z,0.90
2023-11-26T07:14:24.714Z,0.88
2023-11-26T07:17:13.715Z,0.57
2023-11-26T07:20:01.565Z,1.08
2023-11-26T07:22:49.481Z,1.75
2023-11-26T07:25:39.096Z,0.80
2023-11-26T07:28:26.893Z,0.75
2023-11-26T07:31:15.536Z,0.88
2023-11-26T07:34:03.224Z,1.27
2023-11-26T07:36:52.609Z,1.02
2023-11-26T07:39:40.491Z,1.50
2023-11-26T07:42:29.338Z,1.17
2023-11-26T07:45:18.278Z,0.80
2023-11-26T07:48:06.261Z,1.33
2023-11-26T07:50:54.048Z,0.98
2023-11-26T07:53:41.906Z,1.10
2023-11-26T07:56:29.588Z,0.90
2023-11-26T07:59:17.202Z,1.00
2023-11-26T08:02:10.378Z,0.55
2023-11-26T08:04:58.844Z,0.85
2023-11-26T08:07:47.418Z,1.20
2023-11-26T08:10:35.443Z,0.93
2023-11-26T08:13:27.063Z,1.73
2023-11-26T08:16:20.346Z,0.93
2023-11-26T08:19:13.922Z,1.63
2023-11-26T08:22:01.500Z,1.10
2023-11-26T08:24:49.336Z,0.82
2023-11-26T08:27:38.596Z,1.27
2023-11-26T08:30:32.503Z,0.77
2023-11-26T08:33:23.718Z,1.40
2023-11-26T08:36:12.515Z,1.10
2023-11-26T08:39:00.474Z,0.77
2023-11-26T08:41:48.445Z,1.52
2023-11-26T08:44:36.185Z,1.20
2023-11-26T08:47:29.918Z,1.58
2023-11-26T08:50:17.577Z,1.30
2023-11-26T08:53:07.122Z,1.15
2023-11-26T08:55:54.679Z,1.10
2023-11-26T08:58:42.295Z,0.50
2023-11-26T09:01:30.734Z,0.82
2023-11-26T09:04:18.474Z,1.50
2023-11-26T09:07:06.182Z,1.02
2023-11-26T09:09:53.952Z,1.08
2023-11-26T09:12:42.315Z,1.10
2023-11-26T09:15:30.634Z,0.70
2023-11-26T09:18:18.353Z,0.65
2023-11-26T09:21:06.386Z,0.75
2023-11-26T09:23:53.954Z,0.90
2023-11-26T09:26:44.910Z,0.95
2023-11-26T09:29:33.598Z,0.85
2023-11-26T09:32:22.155Z,1.23
2023-11-26T09:35:09.849Z,1.15
2023-11-26T09:37:57.609Z,0.82
2023-11-26T09:40:45.219Z,0.65
2023-11-26T09:43:33.398Z,0.40
2023-11-26T09:46:22.131Z,0.70
2023-11-26T09:49:10.221Z,0.93
2023-11-26T09:52:01.155Z,0.73
2023-11-26T09:54:51.840Z,0.65
2023-11-26T09:57:40.913Z,0.45
2023-11-26T10:00:28.525Z,1.02
2023-11-26T10:03:16.504Z,0.38
2023-11-26T10:06:10.977Z,0.77
2023-11-26T10:08:59.477Z,0.57
2023-11-26T10:11:47.863Z,0.47
2023-11-26T10:14:37.219Z,0.40
2023-11-26T10:17:24.964Z,0.60
2023-11-26T10:20:21.733Z,1.05
2023-11-26T10:23:10.226Z,0.82
2023-11-26T10:25:57.757Z,1.00
2023-11-26T10:28:58.881Z,0.45
2023-11-26T10:31:58.896Z,0.75
2023-11-26T10:34:55.281Z,0.50
2023-11-26T10:37:43.350Z,0.65
2023-11-26T10:40:30.930Z,0.77
2023-11-26T10:43:20.178Z,0.68
2023-11-26T10:46:09.578Z,0.70
2023-11-26T10:49:01.272Z,1.05
2023-11-26T10:52:02.838Z,0.50
2023-11-26T10:55:06.518Z,0.80
2023-11-26T10:58:00.282Z,0.93
2023-11-26T11:00:49.855Z,1.17
2023-11-26T11:03:37.508Z,1.10
2023-11-26T11:06:25.451Z,1.00
2023-11-26T11:09:19.344Z,0.70
2023-11-26T11:12:12.595Z,1.98
2023-11-26T11:15:00.814Z,1.90
2023-11-26T11:17:51.455Z,1.95
2023-11-26T11:20:57.791Z,0.88
2023-11-26T11:23:46.704Z,0.55
2023-11-26T11:26:46.525Z,0.70
2023-11-26T11:29:34.619Z,0.90
2023-11-26T11:32:24.874Z,0.55
2023-11-26T11:35:31.189Z,0.50
2023-11-26T11:38:19.954Z,0.93
2023-11-26T11:41:16.080Z,0.55
2023-11-26T11:44:22.649Z,0.77
2023-11-26T11:47:11.003Z,0.50
2023-11-26T11:50:01.761Z,0.68
2023-11-26T11:52:57.979Z,1.10
2023-11-26T11:55:54.297Z,0.35
2023-11-26T11:58:45.488Z,0.77
2023-11-26T12:01:35.765Z,0.82
2023-11-26T12:04:40.324Z,0.63
2023-11-26T12:07:33.747Z,0.30
2023-11-26T12:10:25.796Z,0.90
2023-11-26T12:13:13.518Z,1.55
2023-11-26T12:16:01.228Z,1.80
2023-11-26T12:18:58.110Z,1.58
2023-11-26T12:21:45.857Z,2.75
2023-11-26T12:24:34.151Z,2.00
2023-11-26T12:27:24.226Z,1.00
2023-11-26T12:30:15.331Z,1.60
2023-11-26T12:33:05.976Z,1.77
2023-11-26T12:35:53.956Z,1.15
2023-11-26T12:38:44.375Z,0.73
2023-11-26T12:41:34.723Z,0.60
2023-11-26T12:44:24.339Z,0.60
2023-11-26T12:47:12.509Z,1.40
2023-11-26T12:50:04.092Z,1.17
2023-11-26T12:52:52.271Z,1.80
2023-11-26T12:55:47.355Z,0.90
2023-11-26T12:58:36.156Z,1.80
2023-11-26T13:01:26.766Z,1.20
2023-11-26T13:04:14.802Z,1.30
2023-11-26T13:07:02.917Z,1.70
2023-11-26T13:09:52.136Z,2.22
2023-11-26T13:12:44.826Z,1.88
2023-11-26T13:15:32.822Z,0.73
2023-11-26T13:18:20.955Z,1.42
2023-11-26T13:21:12.794Z,1.02
2023-11-26T13:24:00.728Z,0.70
2023-11-26T13:26:48.461Z,1.20
2023-11-26T13:29:36.051Z,0.80
2023-11-26T13:32:23.803Z,0.60
2023-11-26T13:35:12.495Z,0.55
2023-11-26T13:38:00.163Z,0.98
2023-11-26T13:40:49.370Z,0.70
2023-11-26T13:43:37.724Z,0.52
2023-11-26T13:46:26.099Z,0.63
2023-11-26T13:49:18.307Z,0.57
2023-11-26T13:52:07.082Z,1.35
2023-11-26T13:54:55.353Z,1.00
2023-11-26T13:57:45.864Z,0.45
2023-11-26T14:00:33.771Z,1.15
2023-11-26T14:03:21.680Z,1.17
2023-11-26T14:06:10.927Z,1.13
2023-11-26T14:09:01.677Z,1.10
2023-11-26T14:11:49.305Z,0.32
2023-11-26T14:14:36.991Z,0.70
2023-11-26T14:17:24.688Z,0.55
2023-11-26T14:20:14.165Z,1.10
2023-11-26T14:23:01.770Z,0.75
2023-11-26T14:25:49.591Z,0.57
2023-11-26T14:28:37.345Z,0.35
2023-11-26T14:31:26.167Z,0.50
2023-11-26T14:34:13.925Z,0.68
2023-11-26T14:37:01.542Z,0.57
2023-11-26T14:39:49.320Z,0.98
2023-11-26T14:42:38.349Z,0.70
2023-11-26T14:45:30.136Z,1.77
2023-11-26T14:48:18.957Z,1.15
2023-11-26T14:51:06.995Z,1.85
2023-11-26T14:53:54.605Z,2.42
2023-11-26T14:56:42.313Z,0.77
2023-11-26T14:59:32.445Z,1.13
2023-11-26T15:02:20.200Z,1.67
2023-11-26T15:05:08.583Z,1.73
2023-11-26T15:07:56.318Z,1.05
2023-11-26T15:10:47.639Z,1.00
2023-11-26T15:13:35.392Z,1.00
2023-11-26T15:16:23.715Z,0.85
2023-11-26T15:19:11.409Z,1.92
2023-11-26T15:21:59.633Z,1.20
2023-11-26T15:24:49.900Z,1.75
2023-11-26T15:27:37.704Z,1.02
2023-11-26T15:30:25.401Z,1.83
2023-11-26T15:33:13.241Z,0.85
2023-11-26T15:36:01.153Z,0.43
2023-11-26T15:38:49.285Z,0.80
2023-11-26T15:41:36.865Z,0.98
2023-11-26T15:44:25.177Z,2.10
2023-11-26T15:47:13.555Z,1.60
2023-11-26T15:50:03.024Z,2.10
2023-11-26T15:52:51.571Z,1.08
2023-11-26T15:55:39.268Z,1.58
2023-11-26T16:01:33.967Z,2.00
2023-11-26T16:04:21.873Z,1.43
2023-11-26T16:07:11.221Z,4.40
2023-11-26T16:09:59.227Z,1.13
2023-11-26T16:12:47.096Z,1.05
2023-11-26T16:15:34.686Z,0.80
2023-11-26T16:18:24.653Z,1.10
2023-11-26T16:21:15.781Z,1.90
2023-11-26T16:24:05.212Z,2.03
2023-11-26T16:26:54.423Z,1.63
2023-11-26T16:29:42.214Z,1.90
2023-11-26T16:32:30.077Z,1.53
2023-11-26T16:35:20.331Z,0.93
2023-11-26T16:38:08.751Z,1.15
2023-11-26T16:40:59.146Z,0.80
2023-11-26T16:43:48.583Z,1.83
2023-11-26T16:46:36.569Z,2.75
2023-11-26T16:49:24.152Z,1.13
2023-11-26T16:52:11.947Z,0.93
2023-11-26T16:54:59.758Z,0.68
2023-11-26T16:57:47.696Z,0.82
2023-11-26T17:00:35.283Z,0.60
2023-11-26T17:03:23.777Z,0.30
2023-11-26T17:06:16.143Z,0.90
2023-11-26T17:09:04.945Z,1.25
2023-11-26T17:11:52.573Z,0.70
2023-11-26T17:14:50.408Z,1.27
2023-11-26T17:17:38.404Z,0.65
2023-11-26T17:20:26.107Z,0.45
2023-11-26T17:23:16.328Z,1.00
2023-11-26T17:26:05.216Z,0.68
2023-11-26T17:28:53.095Z,0.50
2023-11-26T17:31:40.932Z,0.60
2023-11-26T17:34:29.354Z,0.80
2023-11-26T17:37:16.912Z,0.83
2023-11-26T17:40:05.324Z,0.57
2023-11-26T17:42:55.463Z,0.75
2023-11-26T17:45:44.368Z,0.45
2023-11-26T17:48:32.165Z,0.40
2023-11-26T17:51:19.948Z,0.65
2023-11-26T17:54:07.623Z,0.77
2023-11-26T17:56:55.775Z,0.52
2023-11-26T17:59:43.511Z,0.57
2023-11-26T18:02:31.226Z,0.73
2023-11-26T18:05:18.920Z,1.30
2023-11-26T18:08:06.792Z,0.73
2023-11-26T18:10:54.652Z,0.50
2023-11-26T18:13:43.008Z,0.73
2023-11-26T18:16:30.724Z,0.45
2023-11-26T18:19:18.636Z,0.08
2023-11-26T18:22:06.612Z,0.17
2023-11-26T18:24:54.236Z,0.10
2023-11-26T18:27:42.837Z,0.10
2023-11-26T18:30:31.427Z,0.47
2023-11-26T18:33:20.475Z,0.40
2023-11-26T18:36:15.037Z,0.30
2023-11-26T18:39:05.329Z,0.10
2023-11-26T18:41:53.073Z,0.60
2023-11-26T18:44:42.427Z,0.57
2023-11-26T18:47:30.192Z,0.40
2023-11-26T18:50:23.641Z,0.77
2023-11-26T18:53:11.511Z,0.28
2023-11-26T18:56:02.090Z,0.50
2023-11-26T18:58:52.530Z,0.38
2023-11-26T19:01:40.721Z,0.60
2023-11-26T19:04:29.309Z,1.25
2023-11-26T19:07:20.152Z,0.88
2023-11-26T19:10:08.454Z,0.83
2023-11-26T19:12:58.884Z,0.43
2023-11-26T19:15:46.842Z,0.50
2023-11-26T19:18:35.043Z,1.55
2023-11-26T19:21:23.189Z,1.20
2023-11-26T19:24:10.963Z,0.50
2023-11-26T19:26:58.842Z,0.95
2023-11-26T19:29:46.493Z,0.88
2023-11-26T19:32:36.429Z,0.82
2023-11-26T19:35:24.499Z,0.35
2023-11-26T19:38:12.066Z,0.60
2023-11-26T19:40:59.840Z,0.32
2023-11-26T19:43:47.738Z,0.70
2023-11-26T19:46:39.914Z,0.50
2023-11-26T19:49:27.651Z,0.50
2023-11-26T19:52:15.402Z,0.30
2023-11-26T19:55:05.379Z,0.60
2023-11-26T19:57:54.785Z,0.63
2023-11-26T20:00:42.476Z,0.45
2023-11-26T20:03:30.159Z,0.30
2023-11-26T20:06:17.969Z,0.68
2023-11-26T20:09:07.053Z,0.75
2023-11-26T20:11:55.290Z,0.47
2023-11-26T20:14:44.887Z,0.40
2023-11-26T20:17:35.205Z,0.68
2023-11-26T20:20:22.911Z,0.50
2023-11-26T20:23:13.068Z,0.40
2023-11-26T20:26:02.202Z,0.22
2023-11-26T20:28:52.503Z,0.73
2023-11-26T20:31:40.221Z,0.17
2023-11-26T20:34:28.092Z,0.43
2023-11-26T20:37:15.818Z,0.28
2023-11-26T20:40:06.733Z,0.52
2023-11-26T20:42:56.016Z,0.35
2023-11-26T20:45:43.718Z,0.85
2023-11-26T20:48:31.520Z,0.35
2023-11-26T20:51:29.012Z,0.30
2023-11-26T20:54:17.174Z,0.50
2023-11-26T20:57:05.104Z,0.15
2023-11-26T20:59:55.461Z,0.65
2023-11-26T21:02:43.306Z,0.32
2023-11-26T21:05:34.098Z,0.22
2023-11-26T21:08:22.813Z,0.80
2023-11-26T21:11:13.898Z,0.35
2023-11-26T21:14:01.785Z,0.60
2023-11-26T21:16:49.486Z,0.55
2023-11-26T21:19:39.716Z,0.60
2023-11-26T21:22:27.650Z,0.43
2023-11-26T21:25:15.402Z,0.30
2023-11-26T21:28:05.219Z,1.25
2023-11-26T21:30:55.431Z,0.55
2023-11-26T21:33:45.957Z,0.95
2023-11-26T21:36:33.806Z,0.50
2023-11-26T21:39:23.598Z,0.80
2023-11-26T21:42:11.340Z,1.48
2023-11-26T21:44:58.987Z,0.60
2023-11-26T21:47:48.740Z,0.90
2023-11-26T21:50:37.919Z,0.47
2023-11-26T21:53:25.887Z,0.60
2023-11-26T21:56:16.638Z,0.30
2023-11-26T21:59:07.253Z,0.38
2023-11-26T22:01:55.015Z,0.70
2023-11-26T22:04:45.844Z,0.55
2023-11-26T22:07:33.463Z,0.40
2023-11-26T22:10:22.197Z,0.37
2023-11-26T22:13:09.993Z,0.27
2023-11-26T22:15:58.856Z,0.60
2023-11-26T22:18:49.390Z,0.37
2023-11-26T22:21:37.132Z,0.13
2023-11-26T22:24:24.763Z,0.20
2023-11-26T22:27:12.571Z,0.33
2023-11-26T22:30:00.211Z,0.35
2023-11-26T22:32:48.072Z,0.17
2023-11-26T22:35:35.934Z,0.30
2023-11-26T22:38:23.670Z,0.30
2023-11-26T22:41:21.192Z,0.60
2023-11-26T22:44:10.493Z,0.20
2023-11-26T22:47:00.607Z,0.30
2023-11-26T22:49:49.728Z,0.20
2023-11-26T22:52:37.347Z,0.30
2023-11-26T22:55:25.873Z,0.20
2023-11-26T22:58:13.722Z,0.40
2023-11-26T23:01:02.485Z,0.20
2023-11-26T23:03:52.534Z,0.60
2023-11-26T23:06:40.728Z,0.40
2023-11-26T23:09:28.377Z,0.40
2023-11-26T23:12:16.373Z,0.50
2023-11-26T23:15:04.119Z,0.20
2023-11-26T23:17:54.924Z,0.10
2023-11-26T23:20:42.914Z,0.50
2023-11-26T23:23:38.571Z,0.40
2023-11-26T23:26:35.305Z,0.40
2023-11-26T23:29:23.741Z,0.50
2023-11-26T23:32:14.443Z,0.27
2023-11-26T23:35:02.348Z,0.20
2023-11-26T23:37:49.897Z,0.20
2023-11-26T23:40:40.271Z,0.40
2023-11-26T23:43:31.127Z,0.40
2023-11-26T23:46:22.097Z,0.43
2023-11-26T23:49:10.225Z,0.30
2023-11-26T23:51:58.040Z,0.53
2023-11-26T23:54:45.999Z,0.60
2023-11-26T23:57:34.249Z,0.70
